createdAt,value
2018-10-02T00:00:41.103Z,99.99
2018-10-02T00:01:50.772Z,99.99
2018-10-02T00:03:00.714Z,99.99
2018-10-02T00:04:10.390Z,99.99
2018-10-02T00:05:20.330Z,99.99
2018-10-02T00:06:30.317Z,99.99
2018-10-02T00:07:40.262Z,99.99
2018-10-02T00:08:50.202Z,99.99
2018-10-02T00:10:00.133Z,99.99
2018-10-02T00:11:10.059Z,99.99
2018-10-02T00:12:19.478Z,99.99
2018-10-02T00:13:29.402Z,99.99
2018-10-02T00:14:39.326Z,99.99
2018-10-02T00:15:49.251Z,99.99
2018-10-02T00:16:58.926Z,99.99
2018-10-02T00:18:08.598Z,99.99
2018-10-02T00:19:18.516Z,99.99
2018-10-02T00:20:28.437Z,99.99
2018-10-02T00:21:38.360Z,99.99
2018-10-02T00:22:48.051Z,99.99
2018-10-02T00:23:57.983Z,99.99
2018-10-02T00:25:07.656Z,99.99
2018-10-02T00:26:17.071Z,99.99
2018-10-02T00:27:27.005Z,99.99
2018-10-02T00:28:36.924Z,99.99
2018-10-02T00:29:46.353Z,99.99
2018-10-02T00:30:56.030Z,99.99
2018-10-02T00:32:06.275Z,99.99
2018-10-02T00:33:17.225Z,99.99
2018-10-02T00:34:26.928Z,99.99
2018-10-02T00:35:36.864Z,99.99
2018-10-02T00:36:46.792Z,99.99
2018-10-02T00:37:56.725Z,99.99
2018-10-02T00:39:06.398Z,99.99
2018-10-02T00:40:16.332Z,99.99
2018-10-02T00:41:26.281Z,99.99
2018-10-02T00:42:36.214Z,99.99
2018-10-02T00:43:45.879Z,99.99
2018-10-02T00:44:55.555Z,99.99
2018-10-02T00:46:05.485Z,99.99
2018-10-02T00:47:15.173Z,99.99
2018-10-02T00:48:24.875Z,99.99
2018-10-02T00:49:34.580Z,99.99
2018-10-02T00:50:44.503Z,99.99
2018-10-02T00:51:53.919Z,99.99
2018-10-02T00:53:03.890Z,99.99
2018-10-02T00:54:13.295Z,99.99
2018-10-02T00:55:23.230Z,99.99
2018-10-02T00:56:32.899Z,99.99
2018-10-02T00:57:42.829Z,99.99
2018-10-02T00:58:52.768Z,99.99
2018-10-02T01:00:02.431Z,99.99
2018-10-02T01:01:12.316Z,99.99
2018-10-02T01:02:21.978Z,99.99
2018-10-02T01:03:31.380Z,99.99
2018-10-02T01:04:41.336Z,99.99
2018-10-02T01:05:51.001Z,99.99
2018-10-02T01:07:00.936Z,99.99
2018-10-02T01:08:10.890Z,99.99
2018-10-02T01:09:20.828Z,99.99
2018-10-02T01:10:30.756Z,99.99
2018-10-02T01:11:40.682Z,99.99
2018-10-02T01:12:50.355Z,99.99
2018-10-02T01:14:00.287Z,99.99
2018-10-02T01:15:10.293Z,99.99
2018-10-02T01:16:19.968Z,99.99
2018-10-02T01:17:29.644Z,99.99
2018-10-02T01:18:39.325Z,99.99
2018-10-02T01:19:49.482Z,99.99
2018-10-02T01:20:59.423Z,99.99
2018-10-02T01:22:09.076Z,99.99
2018-10-02T01:23:18.751Z,99.99
2018-10-02T01:24:28.163Z,99.99
2018-10-02T01:25:38.085Z,99.99
2018-10-02T01:26:48.000Z,99.99
2018-10-02T01:27:57.692Z,99.99
2018-10-02T01:29:07.627Z,99.99
2018-10-02T01:30:17.550Z,99.99
2018-10-02T01:31:27.486Z,99.99
2018-10-02T01:32:37.425Z,99.99
2018-10-02T01:33:47.132Z,99.99
2018-10-02T01:34:56.802Z,99.99
2018-10-02T01:36:06.539Z,99.99
2018-10-02T01:37:16.471Z,99.99
2018-10-02T01:38:26.146Z,99.99
2018-10-02T01:39:35.817Z,99.99
2018-10-02T01:40:45.760Z,99.99
2018-10-02T01:41:55.703Z,99.99
2018-10-02T01:43:05.370Z,99.99
2018-10-02T01:44:15.033Z,99.99
2018-10-02T01:45:24.705Z,99.99
2018-10-02T01:46:34.637Z,99.99
2018-10-02T01:47:44.567Z,99.99
2018-10-02T01:48:54.514Z,99.99
2018-10-02T01:50:04.442Z,99.99
2018-10-02T01:51:14.377Z,99.99
2018-10-02T01:52:24.305Z,99.99
2018-10-02T01:53:34.235Z,99.99
2018-10-02T01:54:44.155Z,99.99
2018-10-02T01:55:54.085Z,99.99
2018-10-02T01:57:03.497Z,99.99
2018-10-02T01:58:13.456Z,99.99
2018-10-02T01:59:23.130Z,99.99
2018-10-02T02:00:33.078Z,99.99
2018-10-02T02:01:42.998Z,99.99
2018-10-02T02:02:52.411Z,99.99
2018-10-02T02:04:02.349Z,99.99
2018-10-02T02:05:11.765Z,99.99
2018-10-02T02:06:21.705Z,99.99
2018-10-02T02:07:31.108Z,99.99
2018-10-02T02:08:40.766Z,99.99
2018-10-02T02:09:50.698Z,99.99
2018-10-02T02:11:00.623Z,99.99
2018-10-02T02:12:10.285Z,99.99
2018-10-02T02:13:19.958Z,99.99
2018-10-02T02:14:29.637Z,99.99
2018-10-02T02:15:39.556Z,99.99
2018-10-02T02:16:49.496Z,99.99
2018-10-02T02:17:59.425Z,99.99
2018-10-02T02:19:09.348Z,99.99
2018-10-02T02:20:19.009Z,99.99
2018-10-02T02:21:28.686Z,99.99
2018-10-02T02:22:38.669Z,99.99
2018-10-02T02:23:48.357Z,99.99
2018-10-02T02:24:58.366Z,99.99
2018-10-02T02:26:08.092Z,99.99
2018-10-02T02:27:17.999Z,99.99
2018-10-02T02:28:27.933Z,99.99
2018-10-02T02:29:37.610Z,99.99
2018-10-02T02:30:47.292Z,99.99
2018-10-02T02:31:56.981Z,99.99
2018-10-02T02:33:06.932Z,99.99
2018-10-02T02:34:16.611Z,99.99
2018-10-02T02:35:26.272Z,99.99
2018-10-02T02:36:36.206Z,99.99
2018-10-02T02:37:46.124Z,99.99
2018-10-02T02:38:56.072Z,99.99
2018-10-02T02:40:05.760Z,99.99
2018-10-02T02:41:15.684Z,99.99
2018-10-02T02:42:25.616Z,99.99
2018-10-02T02:43:35.278Z,99.99
2018-10-02T02:44:45.221Z,99.99
2018-10-02T02:45:54.903Z,99.99
2018-10-02T02:47:04.836Z,99.99
2018-10-02T02:48:14.513Z,99.99
2018-10-02T02:49:24.474Z,99.99
2018-10-02T02:50:34.398Z,99.99
2018-10-02T02:51:44.064Z,99.99
2018-10-02T02:52:53.997Z,99.99
2018-10-02T02:54:03.967Z,99.99
2018-10-02T02:55:13.656Z,99.99
2018-10-02T02:56:23.080Z,99.99
2018-10-02T02:57:32.512Z,99.99
2018-10-02T02:58:42.467Z,99.99
2018-10-02T02:59:52.406Z,99.99
2018-10-02T03:01:02.084Z,99.99
2018-10-02T03:02:12.018Z,99.99
2018-10-02T03:03:21.707Z,99.99
2018-10-02T03:04:31.638Z,99.99
2018-10-02T03:05:41.061Z,99.99
2018-10-02T03:06:50.738Z,99.99
2018-10-02T03:08:00.671Z,99.99
2018-10-02T03:09:10.369Z,99.99
2018-10-02T03:10:20.294Z,99.99
2018-10-02T03:11:29.969Z,99.99
2018-10-02T03:12:39.658Z,99.99
2018-10-02T03:13:49.362Z,99.99
2018-10-02T03:14:59.293Z,99.99
2018-10-02T03:16:09.229Z,99.99
2018-10-02T03:17:18.908Z,99.99
2018-10-02T03:18:28.861Z,99.99
2018-10-02T03:19:38.800Z,99.99
2018-10-02T03:20:48.729Z,99.99
2018-10-02T03:21:58.514Z,99.99
2018-10-02T03:23:08.481Z,99.99
2018-10-02T03:24:18.439Z,99.99
2018-10-02T03:25:28.362Z,99.99
2018-10-02T03:26:38.306Z,99.99
2018-10-02T03:27:48.248Z,99.99
2018-10-02T03:28:57.975Z,99.99
2018-10-02T03:30:07.937Z,99.99
2018-10-02T03:31:17.636Z,99.99
2018-10-02T03:32:27.310Z,99.99
2018-10-02T03:33:36.776Z,99.99
2018-10-02T03:34:46.441Z,99.99
2018-10-02T03:35:56.115Z,99.99
2018-10-02T03:37:06.057Z,99.99
2018-10-02T03:38:15.982Z,99.99
2018-10-02T03:39:25.941Z,99.99
2018-10-02T03:40:35.723Z,99.99
2018-10-02T03:41:45.131Z,99.99
2018-10-02T03:42:54.811Z,99.99
2018-10-02T03:44:04.491Z,99.99
2018-10-02T03:45:14.430Z,99.99
2018-10-02T03:46:24.357Z,99.99
2018-10-02T03:47:34.046Z,99.99
2018-10-02T03:48:43.452Z,99.99
2018-10-02T03:49:53.818Z,99.99
2018-10-02T03:51:03.774Z,99.99
2018-10-02T03:52:13.710Z,99.99
2018-10-02T03:53:23.376Z,99.99
2018-10-02T03:54:33.034Z,99.99
2018-10-02T03:55:42.989Z,99.99
2018-10-02T03:56:52.684Z,99.99
2018-10-02T03:58:02.359Z,99.99
2018-10-02T03:59:12.325Z,99.99
2018-10-02T04:00:22.314Z,99.99
2018-10-02T04:01:32.242Z,99.99
2018-10-02T04:02:41.917Z,99.99
2018-10-02T04:03:51.584Z,99.99
2018-10-02T04:05:01.262Z,99.99
2018-10-02T04:06:11.192Z,99.99
2018-10-02T04:07:20.882Z,99.99
2018-10-02T04:08:30.543Z,99.99
2018-10-02T04:09:40.217Z,99.99
2018-10-02T04:10:49.891Z,99.99
2018-10-02T04:11:59.845Z,99.99
2018-10-02T04:13:10.058Z,99.99
2018-10-02T04:14:20.423Z,99.99
2018-10-02T04:15:30.358Z,99.99
2018-10-02T04:16:40.296Z,99.99
2018-10-02T04:17:49.477Z,99.99
2018-10-02T04:18:59.425Z,99.99
2018-10-02T04:20:09.112Z,99.99
2018-10-02T04:21:18.783Z,99.99
2018-10-02T04:22:28.713Z,99.99
2018-10-02T04:23:38.382Z,99.99
2018-10-02T04:24:48.059Z,99.99
2018-10-02T04:25:57.781Z,99.99
2018-10-02T04:27:07.721Z,99.99
2018-10-02T04:28:17.193Z,99.99
2018-10-02T04:29:27.496Z,99.99
2018-10-02T04:30:37.428Z,99.99
2018-10-02T04:31:47.112Z,99.99
2018-10-02T04:32:56.790Z,99.99
2018-10-02T04:34:06.516Z,99.99
2018-10-02T04:35:16.583Z,99.99
2018-10-02T04:36:26.516Z,99.99
2018-10-02T04:37:35.939Z,99.99
2018-10-02T04:38:45.873Z,99.99
2018-10-02T04:39:55.808Z,99.99
2018-10-02T04:41:05.759Z,99.99
2018-10-02T04:42:15.447Z,99.99
2018-10-02T04:43:25.389Z,99.99
2018-10-02T04:44:35.322Z,99.99
2018-10-02T04:45:45.258Z,99.99
2018-10-02T04:46:55.393Z,99.99
2018-10-02T04:48:05.091Z,99.99
2018-10-02T04:49:14.522Z,99.99
2018-10-02T04:50:24.465Z,99.99
2018-10-02T04:51:34.133Z,99.99
2018-10-02T04:52:44.080Z,99.99
2018-10-02T04:53:54.030Z,99.99
2018-10-02T04:55:03.873Z,99.99
2018-10-02T04:56:14.405Z,99.99
2018-10-02T04:57:24.346Z,99.99
2018-10-02T04:58:34.293Z,99.99
2018-10-02T04:59:44.221Z,99.99
2018-10-02T05:00:54.150Z,99.99
2018-10-02T05:02:03.565Z,99.99
2018-10-02T05:03:13.310Z,99.99
2018-10-02T05:04:22.981Z,99.99
2018-10-02T05:05:32.671Z,99.99
2018-10-02T05:06:42.360Z,99.99
2018-10-02T05:07:52.302Z,99.99
2018-10-02T05:09:02.005Z,99.99
2018-10-02T05:10:11.966Z,99.99
2018-10-02T05:11:21.903Z,99.99
2018-10-02T05:12:31.835Z,99.99
2018-10-02T05:13:41.789Z,99.99
2018-10-02T05:14:51.734Z,99.99
2018-10-02T05:16:01.687Z,99.99
2018-10-02T05:17:11.663Z,99.99
2018-10-02T05:18:21.652Z,99.99
2018-10-02T05:19:31.602Z,99.99
2018-10-02T05:20:41.360Z,99.99
2018-10-02T05:21:50.946Z,99.99
2018-10-02T05:23:00.928Z,99.99
2018-10-02T05:24:10.364Z,99.99
2018-10-02T05:25:20.327Z,99.99
2018-10-02T05:26:30.278Z,99.99
2018-10-02T05:27:40.399Z,99.99
2018-10-02T05:28:50.364Z,99.99
2018-10-02T05:30:00.076Z,99.99
2018-10-02T05:31:10.048Z,99.99
2018-10-02T05:32:19.999Z,99.99
2018-10-02T05:33:29.707Z,99.99
2018-10-02T05:34:39.830Z,99.99
2018-10-02T05:35:49.778Z,99.99
2018-10-02T05:36:59.737Z,99.99
2018-10-02T05:38:09.682Z,99.99
2018-10-02T05:39:19.657Z,99.99
2018-10-02T05:40:29.607Z,99.99
2018-10-02T05:41:39.307Z,99.99
2018-10-02T05:42:49.371Z,99.99
2018-10-02T05:43:59.580Z,99.99
2018-10-02T05:45:09.010Z,99.99
2018-10-02T05:46:18.955Z,99.99
2018-10-02T05:47:28.380Z,99.99
2018-10-02T05:48:38.385Z,99.99
2018-10-02T05:49:48.555Z,99.99
2018-10-02T05:50:58.256Z,99.99
2018-10-02T05:52:07.949Z,99.99
2018-10-02T05:53:17.642Z,99.99
2018-10-02T05:54:27.598Z,99.99
2018-10-02T05:55:37.295Z,99.99
2018-10-02T05:56:46.990Z,99.99
2018-10-02T05:57:56.680Z,99.99
2018-10-02T05:59:06.391Z,99.99
2018-10-02T06:00:16.336Z,99.99
2018-10-02T06:01:26.304Z,99.99
2018-10-02T06:02:35.994Z,99.99
2018-10-02T06:03:45.905Z,99.99
2018-10-02T06:04:56.141Z,99.99
2018-10-02T06:06:06.095Z,99.99
2018-10-02T06:07:16.051Z,99.99
2018-10-02T06:08:25.497Z,99.99
2018-10-02T06:09:35.478Z,99.99
2018-10-02T06:10:45.193Z,99.99
2018-10-02T06:11:55.183Z,99.99
2018-10-02T06:13:04.939Z,99.99
2018-10-02T06:14:14.654Z,99.99
2018-10-02T06:15:24.602Z,99.99
2018-10-02T06:16:34.549Z,99.99
2018-10-02T06:17:44.243Z,99.99
2018-10-02T06:18:53.694Z,99.99
2018-10-02T06:20:03.635Z,99.99
2018-10-02T06:21:13.565Z,99.99
2018-10-02T06:22:23.504Z,99.99
2018-10-02T06:23:33.463Z,99.99
2018-10-02T06:24:43.207Z,99.99
2018-10-02T06:25:53.881Z,99.99
2018-10-02T06:27:03.561Z,99.99
2018-10-02T06:28:13.528Z,99.99
2018-10-02T06:29:22.985Z,99.99
2018-10-02T06:30:32.840Z,99.99
2018-10-02T06:31:42.833Z,99.99
2018-10-02T06:32:53.008Z,99.99
2018-10-02T06:34:02.963Z,99.99
2018-10-02T06:35:12.668Z,99.99
2018-10-02T06:36:22.638Z,99.99
2018-10-02T06:37:32.577Z,99.99
2018-10-02T06:38:42.530Z,99.99
2018-10-02T06:39:53.040Z,99.99
2018-10-02T06:41:03.009Z,99.99
2018-10-02T06:42:12.802Z,99.99
2018-10-02T06:43:22.767Z,99.99
2018-10-02T06:44:33.016Z,99.99
2018-10-02T06:45:43.076Z,99.99
2018-10-02T06:46:53.064Z,99.99
2018-10-02T06:48:02.778Z,99.99
2018-10-02T06:49:12.479Z,99.99
2018-10-02T06:50:22.500Z,99.99
2018-10-02T06:51:32.732Z,99.99
2018-10-02T06:52:43.853Z,99.99
2018-10-02T06:53:54.027Z,99.99
2018-10-02T06:55:04.020Z,99.99
2018-10-02T06:56:13.963Z,99.99
2018-10-02T06:57:23.670Z,99.99
2018-10-02T06:58:33.363Z,99.99
2018-10-02T06:59:43.349Z,99.99
2018-10-02T07:00:53.290Z,99.99
2018-10-02T07:02:03.264Z,99.99
2018-10-02T07:03:13.227Z,99.99
2018-10-02T07:04:23.228Z,99.99
2018-10-02T07:05:32.976Z,99.99
2018-10-02T07:06:43.015Z,99.99
2018-10-02T07:07:53.397Z,99.99
2018-10-02T07:09:03.458Z,99.99
2018-10-02T07:10:13.905Z,99.99
2018-10-02T07:11:23.609Z,99.99
2018-10-02T07:12:33.630Z,99.99
2018-10-02T07:13:43.930Z,99.99
2018-10-02T07:14:54.082Z,99.99
2018-10-02T07:16:04.325Z,99.99
2018-10-02T07:17:14.282Z,99.99
2018-10-02T07:18:24.117Z,99.99
2018-10-02T07:19:34.066Z,99.99
2018-10-02T07:20:43.904Z,99.99
2018-10-02T07:21:53.763Z,99.99
2018-10-02T07:23:03.204Z,99.99
2018-10-02T07:24:13.240Z,99.99
2018-10-02T07:25:22.681Z,99.99
2018-10-02T07:26:32.832Z,99.99
2018-10-02T07:27:43.614Z,99.99
2018-10-02T07:28:53.711Z,99.99
2018-10-02T07:30:03.696Z,99.99
2018-10-02T07:31:13.652Z,99.99
2018-10-02T07:32:23.615Z,99.99
2018-10-02T07:33:33.045Z,99.99
2018-10-02T07:34:42.999Z,99.99
2018-10-02T07:35:52.945Z,99.99
2018-10-02T07:37:03.061Z,99.99
2018-10-02T07:38:13.158Z,99.99
2018-10-02T07:39:23.114Z,99.99
2018-10-02T07:40:33.053Z,99.99
2018-10-02T07:41:43.131Z,99.99
2018-10-02T07:42:53.285Z,99.99
2018-10-02T07:44:03.231Z,99.99
2018-10-02T07:45:13.238Z,99.99
2018-10-02T07:46:23.190Z,99.99
2018-10-02T07:47:33.030Z,99.99
2018-10-02T07:48:43.664Z,99.99
2018-10-02T07:49:53.737Z,99.99
2018-10-02T07:51:04.129Z,99.99
2018-10-02T07:52:13.945Z,99.99
2018-10-02T07:53:23.663Z,99.99
2018-10-02T07:54:34.022Z,99.99
2018-10-02T07:55:44.101Z,99.99
2018-10-02T07:56:54.109Z,99.99
2018-10-02T07:58:04.537Z,99.99
2018-10-02T07:59:14.513Z,99.99
2018-10-02T08:00:24.250Z,99.99
2018-10-02T08:01:34.348Z,99.99
2018-10-02T08:02:44.651Z,99.99
2018-10-02T08:03:54.782Z,99.99
2018-10-02T08:05:04.581Z,99.99
2018-10-02T08:06:15.189Z,99.99
2018-10-02T08:07:24.656Z,99.99
2018-10-02T08:08:34.516Z,99.99
2018-10-02T08:09:44.616Z,99.99
2018-10-02T08:10:54.580Z,99.99
2018-10-02T08:12:04.786Z,99.99
2018-10-02T08:13:14.903Z,99.99
2018-10-02T08:14:24.901Z,99.99
2018-10-02T08:15:34.540Z,99.99
2018-10-02T08:16:44.495Z,99.99
2018-10-02T08:17:54.364Z,98.27
2018-10-02T08:19:04.353Z,99.5
2018-10-02T08:20:14.073Z,97.6
2018-10-02T08:21:24.090Z,97.31
2018-10-02T08:22:33.791Z,97.03
2018-10-02T08:23:43.645Z,96.55
2018-10-02T08:24:53.796Z,95.7
2018-10-02T08:26:03.518Z,95.7
2018-10-02T08:27:13.777Z,96.36
2018-10-02T08:28:24.318Z,97.22
2018-10-02T08:29:34.203Z,97.45
2018-10-02T08:30:45.034Z,97.03
2018-10-02T08:31:55.019Z,97.31
2018-10-02T08:33:05.021Z,96.94
2018-10-02T08:34:15.457Z,97.98
2018-10-02T08:35:25.143Z,97.03
2018-10-02T08:36:35.310Z,95.98
2018-10-02T08:37:45.569Z,96.26
2018-10-02T08:38:55.348Z,97.22
2018-10-02T08:40:05.619Z,96.46
2018-10-02T08:41:15.322Z,96.46
2018-10-02T08:42:25.284Z,95.7
2018-10-02T08:43:35.323Z,95.7
2018-10-02T08:44:45.875Z,96.46
2018-10-02T08:45:55.693Z,96.36
2018-10-02T08:47:05.659Z,96.17
2018-10-02T08:48:15.625Z,95.6
2018-10-02T08:49:25.339Z,95.32
2018-10-02T08:50:35.196Z,94.37
2018-10-02T08:51:45.951Z,93.7
2018-10-02T08:52:56.285Z,93.46
2018-10-02T08:54:06.428Z,93.37
2018-10-02T08:55:16.203Z,93.37
2018-10-02T08:56:25.640Z,92.51
2018-10-02T08:57:35.365Z,92.51
2018-10-02T08:58:45.341Z,92.75
2018-10-02T08:59:55.310Z,92.79
2018-10-02T09:01:05.098Z,92.32
2018-10-02T09:02:15.093Z,92.03
2018-10-02T09:03:25.043Z,92.22
2018-10-02T09:04:35.023Z,92.13
2018-10-02T09:05:44.467Z,92.13
2018-10-02T09:06:54.197Z,91.84
2018-10-02T09:08:04.514Z,90.89
2018-10-02T09:09:14.484Z,90.7
2018-10-02T09:10:24.473Z,90.32
2018-10-02T09:11:34.200Z,90.32
2018-10-02T09:12:44.321Z,89.47
2018-10-02T09:13:54.262Z,89.65
2018-10-02T09:15:04.124Z,89.27
2018-10-02T09:16:20.317Z,89.37
2018-10-02T09:17:30.746Z,89.08
2018-10-02T09:18:40.881Z,89.08
2018-10-02T09:19:50.493Z,88.6
2018-10-02T09:21:00.435Z,87.94
2018-10-02T09:22:10.542Z,87.79
2018-10-02T09:23:20.515Z,87.23
2018-10-02T09:24:30.556Z,86.75
2018-10-02T09:25:40.541Z,87.13
2018-10-02T09:26:50.499Z,84.94
2018-10-02T09:28:00.402Z,84.75
2018-10-02T09:29:10.982Z,85.6
2018-10-02T09:30:20.854Z,85.41
2018-10-02T09:31:31.414Z,85.6
2018-10-02T09:32:41.375Z,85.13
2018-10-02T09:33:51.113Z,85.22
2018-10-02T09:35:01.579Z,83.84
2018-10-02T09:36:11.548Z,83.36
2018-10-02T09:37:21.940Z,82.31
2018-10-02T09:38:32.253Z,81.46
2018-10-02T09:39:42.453Z,81.55
2018-10-02T09:40:52.298Z,81.55
2018-10-02T09:42:02.029Z,81.07
2018-10-02T09:43:12.437Z,80.98
2018-10-02T09:44:22.212Z,80.12
2018-10-02T09:45:31.982Z,79.59
2018-10-02T09:46:42.409Z,79.59
2018-10-02T09:47:51.854Z,78.92
2018-10-02T09:49:02.022Z,77.87
2018-10-02T09:50:12.314Z,77.97
2018-10-02T09:51:22.292Z,78.12
2018-10-02T09:52:32.251Z,78.78
2018-10-02T09:53:42.246Z,78.78
2018-10-02T09:54:52.159Z,78.98
2018-10-02T09:56:02.375Z,78.06
2018-10-02T09:57:12.387Z,78.16
2018-10-02T09:58:22.362Z,78.73
2018-10-02T09:59:32.603Z,78.5
2018-10-02T10:00:43.015Z,78.12
2018-10-02T10:01:52.758Z,77.93
2018-10-02T10:03:02.798Z,78.98
2018-10-02T10:04:13.000Z,78.03
2018-10-02T10:05:23.416Z,77.2
2018-10-02T10:06:33.109Z,76.82
2018-10-02T10:07:43.106Z,76.31
2018-10-02T10:08:53.112Z,76.35
2018-10-02T10:10:03.089Z,77.2
2018-10-02T10:11:13.074Z,77.4
2018-10-02T10:12:23.081Z,77.4
2018-10-02T10:13:33.034Z,77.4
2018-10-02T10:14:42.760Z,76.35
2018-10-02T10:15:52.474Z,76.44
2018-10-02T10:17:02.592Z,76.35
2018-10-02T10:18:13.054Z,76.64
2018-10-02T10:19:23.017Z,76.82
2018-10-02T10:20:33.016Z,77.01
2018-10-02T10:21:42.754Z,77.45
2018-10-02T10:22:52.974Z,77.26
2018-10-02T10:24:02.936Z,77.26
2018-10-02T10:25:12.686Z,76.88
2018-10-02T10:26:22.703Z,76.88
2018-10-02T10:27:32.872Z,76.79
2018-10-02T10:28:43.019Z,76.88
2018-10-02T10:29:52.898Z,77.17
2018-10-02T10:31:02.856Z,77.26
2018-10-02T10:32:12.829Z,76.5
2018-10-02T10:33:22.612Z,76.79
2018-10-02T10:34:32.986Z,77.26
2018-10-02T10:35:43.444Z,77.59
2018-10-02T10:36:53.442Z,76.35
2018-10-02T10:38:03.132Z,75.74
2018-10-02T10:39:12.866Z,75.84
2018-10-02T10:40:22.711Z,76.12
2018-10-02T10:41:32.780Z,76.31
2018-10-02T10:42:41.976Z,76.5
2018-10-02T10:43:52.007Z,76.4
2018-10-02T10:45:02.003Z,76.59
2018-10-02T10:46:11.460Z,76.5
2018-10-02T10:47:21.443Z,76.79
2018-10-02T10:48:31.507Z,76.4
2018-10-02T10:49:41.480Z,76.31
2018-10-02T10:50:51.287Z,76.4
2018-10-02T10:52:01.265Z,75.74
2018-10-02T10:53:10.992Z,75.84
2018-10-02T10:54:20.980Z,76.12
2018-10-02T10:55:30.696Z,76.12
2018-10-02T10:56:40.470Z,76.4
2018-10-02T10:57:50.426Z,76.5
2018-10-02T10:59:00.220Z,76.98
2018-10-02T11:00:10.340Z,77.45
2018-10-02T11:01:20.321Z,76.98
2018-10-02T11:02:30.012Z,77.64
2018-10-02T11:03:39.994Z,77.17
2018-10-02T11:04:49.983Z,77.17
2018-10-02T11:06:00.139Z,76.98
2018-10-02T11:07:09.841Z,77.17
2018-10-02T11:08:19.795Z,77.45
2018-10-02T11:09:29.905Z,76.98
2018-10-02T11:10:40.055Z,77.26
2018-10-02T11:11:50.006Z,77.45
2018-10-02T11:12:59.728Z,77.17
2018-10-02T11:14:09.770Z,77.51
2018-10-02T11:15:19.659Z,77.55
2018-10-02T11:16:29.926Z,77.89
2018-10-02T11:17:39.878Z,77.55
2018-10-02T11:18:49.403Z,77.7
2018-10-02T11:19:59.585Z,77.32
2018-10-02T11:21:09.662Z,77.61
2018-10-02T11:22:19.624Z,78.56
2018-10-02T11:23:29.311Z,78.85
2018-10-02T11:24:39.008Z,79.6
2018-10-02T11:25:48.839Z,79.8
2018-10-02T11:26:59.256Z,79.6
2018-10-02T11:28:09.212Z,79.03
2018-10-02T11:29:19.184Z,79.8
2018-10-02T11:30:29.136Z,79.51
2018-10-02T11:31:38.965Z,79.99
2018-10-02T11:32:49.231Z,80.65
2018-10-02T11:33:59.206Z,80.36
2018-10-02T11:35:09.167Z,81.03
2018-10-02T11:36:19.217Z,81.6
2018-10-02T11:37:29.400Z,81.7
2018-10-02T11:38:39.220Z,82.27
2018-10-02T11:39:49.175Z,82.84
2018-10-02T11:40:58.869Z,84.27
2018-10-02T11:42:08.572Z,85.22
2018-10-02T11:43:18.701Z,85.8
2018-10-02T11:44:29.547Z,85.7
2018-10-02T11:45:39.783Z,85.7
2018-10-02T11:46:49.746Z,85.32
2018-10-02T11:47:59.446Z,85.41
2018-10-02T11:49:09.516Z,85.41
2018-10-02T11:50:19.473Z,86.65
2018-10-02T11:51:29.181Z,86.75
2018-10-02T11:52:39.161Z,86.94
2018-10-02T11:53:48.887Z,87.79
2018-10-02T11:54:58.863Z,88.65
2018-10-02T11:56:08.876Z,89.32
2018-10-02T11:57:18.906Z,90.51
2018-10-02T11:58:28.707Z,91.46
2018-10-02T11:59:38.897Z,90.61
2018-10-02T12:00:48.810Z,91.94
2018-10-02T12:01:59.092Z,91.94
2018-10-02T12:03:08.793Z,93.55
2018-10-02T12:04:19.002Z,95.17
2018-10-02T12:05:28.716Z,93.37
2018-10-02T12:06:38.797Z,92.03
2018-10-02T12:07:48.756Z,92.79
2018-10-02T12:08:58.857Z,93.74
2018-10-02T12:10:09.357Z,95.08
2018-10-02T12:11:19.401Z,94.98
2018-10-02T12:12:29.252Z,95.75
2018-10-02T12:13:39.678Z,97.08
2018-10-02T12:14:50.571Z,95.75
2018-10-02T12:16:01.152Z,96.51
2018-10-02T12:17:10.891Z,95.08
2018-10-02T12:18:20.325Z,95.94
2018-10-02T12:19:30.582Z,95.75
2018-10-02T12:20:40.712Z,95.75
2018-10-02T12:21:50.438Z,94.79
2018-10-02T12:23:00.183Z,95.94
2018-10-02T12:24:10.152Z,94.89
2018-10-02T12:25:19.863Z,94.89
2018-10-02T12:26:29.842Z,95.84
2018-10-02T12:27:39.325Z,93.74
2018-10-02T12:28:49.039Z,93.46
2018-10-02T12:29:58.765Z,92.7
2018-10-02T12:31:07.980Z,92.99
2018-10-02T12:32:17.887Z,92.6
2018-10-02T12:33:27.585Z,92.32
2018-10-02T12:34:37.279Z,92.13
2018-10-02T12:35:47.000Z,92.41
2018-10-02T12:36:56.965Z,92.41
2018-10-02T12:38:06.454Z,92.6
2018-10-02T12:39:16.278Z,92.41
2018-10-02T12:40:26.403Z,92.51
2018-10-02T12:41:36.369Z,92.03
2018-10-02T12:42:46.061Z,92.51
2018-10-02T12:43:55.521Z,92.13
2018-10-02T12:45:05.207Z,92.7
2018-10-02T12:46:15.321Z,92.32
2018-10-02T12:47:24.888Z,91.37
2018-10-02T12:48:34.678Z,92.03
2018-10-02T12:49:44.389Z,91.27
2018-10-02T12:50:54.099Z,91.08
2018-10-02T12:52:04.111Z,91.27
2018-10-02T12:53:14.438Z,90.99
2018-10-02T12:54:24.194Z,91.46
2018-10-02T12:55:33.629Z,91.37
2018-10-02T12:56:43.338Z,91.56
2018-10-02T12:57:53.306Z,91.56
2018-10-02T12:59:03.338Z,92.13
2018-10-02T13:00:13.435Z,92.13
2018-10-02T13:01:23.405Z,92.03
2018-10-02T13:02:32.588Z,92.51
2018-10-02T13:03:42.064Z,92.94
2018-10-02T13:04:51.758Z,93.46
2018-10-02T13:06:01.461Z,93.65
2018-10-02T13:07:11.428Z,93.18
2018-10-02T13:08:21.138Z,92.79
2018-10-02T13:09:31.090Z,93.37
2018-10-02T13:10:41.053Z,93.18
2018-10-02T13:11:50.754Z,93.65
2018-10-02T13:13:00.061Z,94.32
2018-10-02T13:14:09.409Z,94.03
2018-10-02T13:15:18.855Z,93.74
2018-10-02T13:16:28.884Z,93.46
2018-10-02T13:17:39.045Z,93.18
2018-10-02T13:18:48.769Z,93.46
2018-10-02T13:19:58.672Z,93.18
2018-10-02T13:21:08.707Z,94.79
2018-10-02T13:22:18.678Z,95.94
2018-10-02T13:23:28.383Z,97.36
2018-10-02T13:24:38.204Z,97.27
2018-10-02T13:25:48.388Z,98.08
2018-10-02T13:26:57.871Z,99.88
2018-10-02T13:28:07.831Z,99.99
2018-10-02T13:29:17.847Z,99.99
2018-10-02T13:30:27.009Z,99.99
2018-10-02T13:31:36.722Z,99.99
2018-10-02T13:32:46.719Z,99.99
2018-10-02T13:33:56.171Z,99.99
2018-10-02T13:35:05.901Z,99.99
2018-10-02T13:36:15.388Z,99.99
2018-10-02T13:37:25.367Z,99.99
2018-10-02T13:38:34.815Z,99.99
2018-10-02T13:39:44.756Z,99.99
2018-10-02T13:40:54.725Z,99.99
2018-10-02T13:42:04.668Z,99.99
2018-10-02T13:43:14.849Z,99.99
2018-10-02T13:44:24.821Z,99.99
2018-10-02T13:45:34.632Z,99.99
2018-10-02T13:46:44.589Z,99.99
2018-10-02T13:47:54.547Z,99.99
2018-10-02T13:49:04.242Z,99.99
2018-10-02T13:50:14.201Z,99.99
2018-10-02T13:51:24.167Z,99.99
2018-10-02T13:52:33.866Z,99.99
2018-10-02T13:53:43.574Z,99.99
2018-10-02T13:54:53.253Z,99.99
2018-10-02T13:56:03.237Z,99.99
2018-10-02T13:57:13.212Z,99.99
2018-10-02T13:58:23.186Z,99.99
2018-10-02T13:59:32.889Z,99.99
2018-10-02T14:00:42.593Z,99.99
2018-10-02T14:01:52.542Z,99.99
2018-10-02T14:03:02.739Z,99.99
2018-10-02T14:04:12.716Z,99.99
2018-10-02T14:05:22.154Z,99.99
2018-10-02T14:06:31.840Z,99.99
2018-10-02T14:07:41.807Z,99.99
2018-10-02T14:08:51.768Z,99.99
2018-10-02T14:10:01.464Z,99.99
2018-10-02T14:11:11.442Z,99.99
2018-10-02T14:12:21.395Z,99.99
2018-10-02T14:13:31.094Z,99.99
2018-10-02T14:14:40.543Z,99.99
2018-10-02T14:15:50.406Z,99.99
2018-10-02T14:17:00.354Z,99.99
2018-10-02T14:18:10.332Z,99.99
2018-10-02T14:19:20.044Z,99.99
2018-10-02T14:20:29.720Z,99.99
2018-10-02T14:21:39.524Z,99.99
2018-10-02T14:22:49.784Z,99.99
2018-10-02T14:23:59.481Z,99.99
2018-10-02T14:25:09.201Z,99.99
2018-10-02T14:26:19.183Z,99.99
2018-10-02T14:27:29.142Z,99.99
2018-10-02T14:28:38.851Z,99.99
2018-10-02T14:29:48.852Z,99.99
2018-10-02T14:30:59.034Z,99.99
2018-10-02T14:32:09.006Z,99.99
2018-10-02T14:33:18.961Z,99.99
2018-10-02T14:34:28.915Z,99.99
2018-10-02T14:35:38.631Z,99.99
2018-10-02T14:36:48.479Z,99.99
2018-10-02T14:37:58.434Z,99.99
2018-10-02T14:39:08.392Z,99.99
2018-10-02T14:40:18.350Z,99.99
2018-10-02T14:41:28.299Z,99.99
2018-10-02T14:42:38.008Z,99.99
2018-10-02T14:43:47.957Z,99.99
2018-10-02T14:44:57.401Z,99.99
2018-10-02T14:46:07.366Z,99.99
2018-10-02T14:47:17.312Z,99.99
2018-10-02T14:48:27.260Z,99.99
2018-10-02T14:49:37.410Z,99.99
2018-10-02T14:50:47.224Z,99.99
2018-10-02T14:51:56.648Z,99.99
2018-10-02T14:53:06.615Z,99.99
2018-10-02T14:54:16.578Z,99.99
2018-10-02T14:55:26.536Z,99.99
2018-10-02T14:56:36.487Z,99.99
2018-10-02T14:57:46.437Z,99.99
2018-10-02T14:58:56.127Z,99.99
2018-10-02T15:00:06.115Z,99.99
2018-10-02T15:01:15.553Z,99.99